Time;durP1;ratioP1;P1;durP2;ratioP2;P2;SDS_P1;SDS_P2;PMS_P1;PMS_P2;Temp;Humidity;BMP_temperature;BMP_pressure;BME280_temperature;BME280_humidity;BME280_pressure;Samples;Min_cycle;Max_cycle;Signal;HPM_P1;HPM_P2
2022/05/04 00:00:05;;;;;;;20.48;11.98;;;;;;;8.69;67.02;95345.91;5009051;28;20029;-82
2022/05/04 00:02:31;;;;;;;19.73;12.05;;;;;;;8.01;67.18;95253.25;5009609;28;20124;-82
2022/05/04 00:04:57;;;;;;;20.42;11.77;;;;;;;8.18;66.74;95268.94;5009313;28;20113;-82
2022/05/04 00:07:22;;;;;;;22.15;11.80;;;;;;;8.54;66.38;95314.88;5009419;28;20446;-82
2022/05/04 00:09:48;;;;;;;23.30;12.45;;;;;;;7.91;66.95;95228.63;5026990;28;20083;-82
2022/05/04 00:12:14;;;;;;;30.52;11.20;;;;;;;7.87;67.59;95246.81;5009533;28;20064;-82
2022/05/04 00:14:39;;;;;;;19.23;11.82;;;;;;;8.42;67.81;95336.22;5009684;28;20061;-82
2022/05/04 00:17:04;;;;;;;21.50;10.88;;;;;;;7.79;67.51;95252.56;5027476;28;20372;-82
2022/05/04 00:19:30;;;;;;;23.90;11.90;;;;;;;8.54;67.42;95336.03;5009143;28;20370;-82
2022/05/04 00:21:55;;;;;;;23.02;11.02;;;;;;;7.38;67.27;95168.91;5009171;28;20048;-82
2022/05/04 00:24:21;;;;;;;23.30;12.15;;;;;;;8.58;67.10;95331.81;5027591;28;20036;-82
2022/05/04 00:26:46;;;;;;;16.80;10.65;;;;;;;8.66;67.08;95338.47;5026619;28;20091;-81
2022/05/04 00:29:12;;;;;;;19.67;11.65;;;;;;;8.65;66.69;95332.38;5016636;28;20144;-82
2022/05/04 00:31:38;;;;;;;18.52;10.60;;;;;;;8.12;67.21;95256.75;5026875;28;20095;-82
2022/05/04 00:34:03;;;;;;;19.40;11.77;;;;;;;8.04;66.83;95258.03;5027064;28;20121;-82
2022/05/04 00:36:29;;;;;;;17.48;10.95;;;;;;;7.95;66.63;95232.34;5013919;28;20041;-81
2022/05/04 00:38:54;;;;;;;22.27;11.23;;;;;;;7.36;66.40;95130.38;5025102;28;20466;-81
2022/05/04 00:41:20;;;;;;;16.02;10.52;;;;;;;8.09;66.62;95260.69;5028849;28;20111;-82
2022/05/04 00:43:55;;;;;;;21.65;10.95;;;;;;;8.16;66.66;95272.91;5030595;28;20040;-82
2022/05/04 00:46:22;;;;;;;19.58;10.50;;;;;;;7.64;66.49;95202.31;5030905;28;20068;-82
2022/05/04 00:48:48;;;;;;;20.83;11.43;;;;;;;7.78;66.55;95219.31;5029562;28;20061;-82
2022/05/04 00:51:14;;;;;;;18.90;10.35;;;;;;;7.63;66.21;95206.78;5030713;28;20041;-82
2022/05/04 00:53:42;;;;;;;16.85;10.48;;;;;;;7.86;66.24;95231.25;5028858;28;20034;-81
2022/05/04 00:56:11;;;;;;;20.23;10.40;;;;;;;8.56;66.05;95357.69;5030180;28;20029;-82
2022/05/04 00:58:56;;;;;;;31.88;10.85;;;;;;;7.38;65.75;95172.34;5012043;28;20102;-81
2022/05/04 01:01:30;;;;;;;21.08;9.18;;;;;;;7.96;66.07;95282.28;5029973;28;20452;-82
2022/05/04 01:03:58;;;;;;;19.35;11.05;;;;;;;8.49;66.21;95359.78;5030170;28;20113;-82
2022/05/04 01:06:24;;;;;;;25.35;10.55;;;;;;;8.00;65.56;95269.38;5030224;28;20040;-83
2022/05/04 01:08:51;;;;;;;17.02;9.32;;;;;;;7.71;65.96;95266.25;5030243;28;20021;-82
2022/05/04 01:11:18;;;;;;;16.30;9.50;;;;;;;8.48;65.65;95369.56;5028955;28;20039;-82
2022/05/04 01:14:00;;;;;;;19.42;10.85;;;;;;;7.67;65.58;95228.22;5030246;28;20542;-82
2022/05/04 01:16:27;;;;;;;16.90;10.73;;;;;;;8.53;65.58;95358.22;5015628;28;20510;-82
2022/05/04 01:18:52;;;;;;;15.55;9.73;;;;;;;7.89;65.79;95275.63;5012339;28;20037;-82
2022/05/04 01:21:17;;;;;;;17.92;9.60;;;;;;;7.52;66.54;95252.66;5027565;28;20031;-82
2022/05/04 01:23:45;;;;;;;17.60;9.77;;;;;;;7.17;67.47;95233.91;5029814;28;20095;-82
2022/05/04 01:26:10;;;;;;;18.50;10.25;;;;;;;7.50;67.01;95288.25;5012127;28;20516;-82
2022/05/04 01:28:35;;;;;;;18.23;9.98;;;;;;;7.01;67.30;95200.53;5012231;28;20045;-82
2022/05/04 01:31:01;;;;;;;15.60;9.77;;;;;;;7.47;66.99;95275.56;5012069;28;20041;-82
2022/05/04 01:33:26;;;;;;;22.23;10.13;;;;;;;7.63;66.46;95275.41;5029715;28;20033;-82
2022/05/04 01:35:52;;;;;;;19.52;9.60;;;;;;;7.25;67.17;95257.94;5030078;28;20061;-82
2022/05/04 01:38:17;;;;;;;17.75;9.95;;;;;;;7.73;66.67;95309.81;5011947;28;20029;-82
2022/05/04 01:40:43;;;;;;;15.75;9.70;;;;;;;8.18;66.66;95384.38;5030515;28;20040;-82
2022/05/04 01:43:08;;;;;;;16.52;10.20;;;;;;;8.17;66.58;95372.22;5012329;28;20045;-82
2022/05/04 01:45:34;;;;;;;19.33;9.63;;;;;;;6.71;67.47;95206.28;5010508;28;20041;-82
2022/05/04 01:47:59;;;;;;;20.02;10.60;;;;;;;5.41;68.72;95044.72;5029763;28;20124;-82
2022/05/04 01:50:24;;;;;;;18.42;9.68;;;;;;;6.45;68.67;95190.22;5029518;28;20112;-82
2022/05/04 01:52:50;;;;;;;19.50;10.65;;;;;;;7.60;67.74;95344.56;5029948;28;20538;-82
2022/05/04 01:55:17;;;;;;;18.67;9.93;;;;;;;7.40;67.71;95310.06;5029611;28;20037;-82
2022/05/04 01:57:42;;;;;;;16.90;9.85;;;;;;;7.83;67.05;95355.84;5011625;28;20029;-82
2022/05/04 02:00:09;;;;;;;16.67;10.10;;;;;;;7.02;67.03;95254.84;5029376;28;20036;-82
2022/05/04 02:02:35;;;;;;;15.50;10.13;;;;;;;7.38;67.33;95306.88;5011436;28;20037;-82
2022/05/04 02:05:02;;;;;;;16.80;10.02;;;;;;;7.29;66.96;95271.44;5029363;28;20095;-82
2022/05/04 02:07:28;;;;;;;18.45;9.73;;;;;;;7.23;67.07;95291.72;5008075;28;20040;-82
2022/05/04 02:09:54;;;;;;;19.27;9.25;;;;;;;6.74;68.25;95256.66;5028969;28;20025;-81
2022/05/04 02:12:20;;;;;;;19.85;10.38;;;;;;;6.87;67.91;95231.75;5010510;28;20033;-82
2022/05/04 02:14:45;;;;;;;17.42;9.73;;;;;;;6.97;68.18;95260.84;5011166;28;20021;-81
2022/05/04 02:17:11;;;;;;;18.48;8.70;;;;;;;6.15;68.08;95156.41;5028692;28;20052;-82
2022/05/04 02:19:36;;;;;;;20.20;10.27;;;;;;;6.71;68.14;95225.53;5028865;28;20033;-82
2022/05/04 02:22:01;;;;;;;16.23;9.15;;;;;;;6.95;67.52;95266.38;5010562;28;20025;-82
2022/05/04 02:24:27;;;;;;;18.25;10.13;;;;;;;7.07;67.40;95273.34;5028318;28;20518;-82
2022/05/04 02:26:52;;;;;;;19.67;9.75;;;;;;;7.06;67.67;95295.47;5028787;28;20063;-82
2022/05/04 02:29:18;;;;;;;21.95;9.70;;;;;;;7.32;67.51;95332.41;5011383;28;20123;-82
2022/05/04 02:31:43;;;;;;;22.50;10.27;;;;;;;5.80;68.37;95119.09;5016318;28;20580;-82
2022/05/04 02:34:09;;;;;;;18.75;10.73;;;;;;;6.54;68.63;95245.91;5028581;28;20037;-82
2022/05/04 02:39:18;;;;;;;21.20;10.77;;;;;;;6.78;67.88;95241.97;5028886;28;20175;-83
2022/05/04 02:41:43;;;;;;;17.00;10.20;;;;;;;7.47;68.10;95362.66;5027347;28;20124;-82
2022/05/04 02:44:09;;;;;;;18.85;10.65;;;;;;;6.87;68.25;95292.38;5027241;28;20033;-82
2022/05/04 02:46:35;;;;;;;20.55;10.73;;;;;;;7.54;67.65;95364.03;5029055;28;20037;-82
2022/05/04 02:49:00;;;;;;;22.55;10.73;;;;;;;7.44;67.45;95323.56;5013899;28;20041;-83
2022/05/04 02:51:26;;;;;;;30.38;12.18;;;;;;;7.02;67.45;95274.06;5008885;28;20095;-82
2022/05/04 02:53:51;;;;;;;25.73;10.77;;;;;;;7.18;67.61;95296.13;5025669;28;20415;-82
2022/05/04 02:56:17;;;;;;;20.83;11.02;;;;;;;7.11;67.86;95285.78;5027202;28;20448;-82
2022/05/04 02:58:43;;;;;;;31.40;13.48;;;;;;;7.74;67.21;95373.97;5007831;28;20106;-82
2022/05/04 03:04:07;;;;;;;;;;;;;;;7.58;67.97;95383.59;5022752;28;20114;-82
2022/05/04 03:06:37;;;;;;;27.42;11.57;;;;;;;7.63;67.78;95383.63;5014720;28;20395;-81
2022/05/04 03:09:04;;;;;;;29.08;11.75;;;;;;;6.75;68.13;95297.78;5027947;28;20021;-82
2022/05/04 03:14:13;;;;;;;22.73;12.15;;;;;;;7.06;67.59;95325.28;5027963;28;20032;-82
2022/05/04 03:16:42;;;;;;;25.27;11.68;;;;;;;6.85;67.55;95284.72;5026742;28;20030;-82
2022/05/04 03:19:07;;;;;;;22.67;11.23;;;;;;;7.04;67.32;95314.19;5027834;28;20379;-82
2022/05/04 03:21:34;;;;;;;34.90;11.77;;;;;;;6.90;66.99;95276.06;5026091;28;20033;-80
2022/05/04 03:24:01;;;;;;;30.60;12.85;;;;;;;7.53;66.83;95396.75;5028131;28;20052;-83
2022/05/04 03:26:27;;;;;;;22.83;11.63;;;;;;;6.98;67.78;95320.47;5028110;28;20427;-83
2022/05/04 03:28:52;;;;;;;33.92;13.05;;;;;;;7.50;67.74;95399.88;5030126;28;20132;-82
2022/05/04 03:31:18;;;;;;;28.50;12.57;;;;;;;7.33;67.59;95354.31;5027856;28;20119;-83
2022/05/04 03:33:44;;;;;;;26.17;11.07;;;;;;;6.48;67.09;95212.63;5027627;28;20034;-81
2022/05/04 03:36:10;;;;;;;23.90;11.77;;;;;;;7.09;67.23;95309.00;5026613;28;20030;-81
2022/05/04 03:38:36;;;;;;;27.80;11.18;;;;;;;6.69;67.12;95274.25;5027637;28;20044;-81
2022/05/04 03:41:02;;;;;;;24.83;11.82;;;;;;;7.07;67.52;95345.34;5027429;28;20038;-81
2022/05/04 03:43:28;;;;;;;19.55;10.73;;;;;;;6.96;66.90;95301.44;5009403;28;20063;-81
2022/05/04 03:45:54;;;;;;;23.35;10.93;;;;;;;6.67;67.38;95265.78;5025903;28;20037;-80
2022/05/04 03:48:20;;;;;;;23.48;12.50;;;;;;;7.53;66.66;95377.47;5010643;28;20102;-81
2022/05/04 03:50:46;;;;;;;30.05;11.75;;;;;;;7.36;66.46;95325.59;5026635;28;20071;-81
2022/05/04 03:53:13;;;;;;;22.90;11.70;;;;;;;7.99;66.32;95397.97;5027380;28;20140;-81
2022/05/04 03:55:38;;;;;;;23.42;11.80;;;;;;;7.18;66.73;95269.75;5008138;28;20119;-81
2022/05/04 03:58:04;;;;;;;23.17;11.63;;;;;;;7.68;66.70;95375.00;5026726;28;20475;-81
2022/05/04 04:00:30;;;;;;;25.48;11.30;;;;;;;7.97;65.94;95417.75;5026205;28;20119;-81
2022/05/04 04:02:55;;;;;;;27.00;12.63;;;;;;;7.39;66.07;95344.63;5037476;28;20044;-81
2022/05/04 04:05:22;;;;;;;30.27;12.70;;;;;;;7.51;66.16;95339.97;5007667;28;20036;-81
2022/05/04 04:07:48;;;;;;;29.90;12.45;;;;;;;7.33;66.16;95328.72;5010325;28;20504;-82
2022/05/04 04:10:14;;;;;;;35.00;12.15;;;;;;;7.58;66.23;95359.84;5011425;28;20099;-82
2022/05/04 04:12:39;;;;;;;19.95;11.50;;;;;;;7.58;66.54;95359.03;5026466;28;20038;-81
2022/05/04 04:15:05;;;;;;;19.95;10.43;;;;;;;7.72;66.23;95390.06;5013911;28;20026;-81
2022/05/04 04:17:31;;;;;;;20.20;11.30;;;;;;;7.58;66.01;95365.13;5016086;28;20037;-81
2022/05/04 04:22:40;;;;;;;29.30;10.95;;;;;;;8.00;65.63;95407.50;5021298;28;20064;-82
2022/05/04 04:25:06;;;;;;;19.75;9.80;;;;;;;7.38;65.43;95329.84;5011522;28;20127;-82
2022/05/04 04:27:32;;;;;;;17.08;9.75;;;;;;;8.07;65.54;95428.41;5008385;28;20025;-82
2022/05/04 04:30:04;;;;;;;18.83;9.70;;;;;;;7.58;65.15;95348.50;5022354;28;20534;-82
2022/05/04 04:32:30;;;;;;;23.63;10.20;;;;;;;7.65;65.27;95384.19;5001314;28;20034;-82
2022/05/04 04:34:55;;;;;;;21.92;9.65;;;;;;;7.78;64.87;95413.91;5014516;28;20099;-82
2022/05/04 04:37:26;;;;;;;25.77;10.07;;;;;;;7.23;64.99;95312.81;5003535;28;20593;-81
2022/05/04 04:39:51;;;;;;;22.20;9.97;;;;;;;6.78;65.14;95235.88;5017119;28;20041;-83
2022/05/04 04:42:17;;;;;;;24.42;9.35;;;;;;;7.28;64.08;95294.38;5020494;28;20568;-82
2022/05/04 04:44:42;;;;;;;21.02;9.32;;;;;;;7.79;64.23;95397.78;5010552;28;20462;-82
2022/05/04 04:47:08;;;;;;;18.13;8.90;;;;;;;6.96;64.10;95275.06;5014406;28;20041;-83
2022/05/04 04:49:33;;;;;;;17.42;8.63;;;;;;;7.05;64.81;95281.50;5013855;28;20025;-82
2022/05/04 04:51:59;;;;;;;26.08;9.88;;;;;;;7.84;65.42;95426.91;5014802;28;20535;-82
2022/05/04 04:54:24;;;;;;;21.08;9.48;;;;;;;7.37;64.97;95334.31;4991399;28;20037;-82
2022/05/04 04:56:50;;;;;;;25.90;10.07;;;;;;;6.38;64.92;95184.34;4997513;28;20448;-82
2022/05/04 04:59:15;;;;;;;22.65;9.80;;;;;;;6.45;64.80;95161.22;4995723;28;20750;-82
2022/05/04 05:01:40;;;;;;;18.63;9.75;;;;;;;8.21;65.66;95449.94;4994938;28;20118;-82
2022/05/04 05:04:06;;;;;;;29.80;9.93;;;;;;;8.36;64.62;95448.25;4995793;28;20436;-82
2022/05/04 05:06:31;;;;;;;23.10;10.18;;;;;;;8.36;64.71;95452.72;5005584;28;20037;-82
2022/05/04 05:08:57;;;;;;;28.15;10.27;;;;;;;7.88;64.19;95347.97;5007511;28;20801;-83
2022/05/04 05:11:23;;;;;;;24.63;9.18;;;;;;;8.23;63.73;95418.78;5004185;28;20652;-83
2022/05/04 05:16:33;;;;;;;23.70;11.02;;;;;;;8.46;64.13;95450.16;5009950;28;20146;-83
2022/05/04 05:18:59;;;;;;;26.88;11.20;;;;;;;8.65;63.83;95459.28;5015241;28;20030;-83
2022/05/04 05:21:24;;;;;;;26.08;11.55;;;;;;;7.82;64.70;95401.78;4999019;28;20108;-83
2022/05/04 05:23:50;;;;;;;29.17;12.75;;;;;;;7.25;65.75;95337.09;5001026;28;20202;-82
2022/05/04 05:26:15;;;;;;;30.15;12.80;;;;;;;7.54;65.31;95328.94;4993898;28;20073;-82
2022/05/04 05:28:41;;;;;;;27.17;12.10;;;;;;;8.43;64.62;95463.88;4996568;28;20124;-81
2022/05/04 05:31:07;;;;;;;23.63;12.25;;;;;;;8.02;64.34;95380.81;5020542;28;20060;-82
2022/05/04 05:33:32;;;;;;;23.75;11.80;;;;;;;8.03;63.54;95364.72;4996995;28;20068;-82
2022/05/04 05:35:58;;;;;;;30.75;11.55;;;;;;;8.08;63.10;95340.22;5007368;28;20435;-82
2022/05/04 05:38:27;;;;;;;34.80;14.00;;;;;;;9.02;62.66;95450.50;4995089;28;20532;-82
2022/05/04 05:40:52;;;;;;;30.77;12.65;;;;;;;8.14;62.35;95305.66;4996436;28;20185;-82
2022/05/04 05:43:18;;;;;;;25.13;12.00;;;;;;;8.24;62.48;95322.63;5001198;28;20021;-82
2022/05/04 05:45:43;;;;;;;32.63;12.35;;;;;;;8.26;62.90;95347.72;5012977;28;20026;-83
2022/05/04 05:48:09;;;;;;;29.08;12.13;;;;;;;8.61;63.04;95413.25;5011942;28;20032;-82
2022/05/04 05:50:34;;;;;;;35.97;12.63;;;;;;;7.68;64.17;95332.75;5018023;28;20033;-82
2022/05/04 05:53:03;;;;;;;32.40;11.80;;;;;;;7.34;63.68;95253.03;4992654;28;20120;-83
2022/05/04 05:55:30;;;;;;;27.83;12.20;;;;;;;7.97;64.05;95343.81;4988718;28;20756;-82
2022/05/04 05:57:56;;;;;;;23.70;11.43;;;;;;;7.99;63.56;95294.19;5013976;28;20136;-83
2022/05/04 06:00:21;;;;;;;24.88;12.43;;;;;;;8.97;63.34;95464.50;5015485;28;20150;-82
2022/05/04 06:02:47;;;;;;;29.77;12.35;;;;;;;8.64;63.80;95409.28;4999498;28;20132;-82
2022/05/04 06:05:13;;;;;;;28.83;16.77;;;;;;;8.72;63.37;95390.31;5014611;28;20516;-82
2022/05/04 06:07:39;;;;;;;29.23;13.93;;;;;;;8.59;63.76;95353.75;4994368;28;20044;-81
2022/05/04 06:10:05;;;;;;;29.33;13.52;;;;;;;7.98;64.70;95297.88;5009349;28;20508;-82
2022/05/04 06:12:31;;;;;;;22.52;11.68;;;;;;;8.97;64.09;95448.66;5013812;28;20304;-82
2022/05/04 06:14:57;;;;;;;26.63;13.02;;;;;;;7.98;64.50;95308.44;5013866;28;20036;-83
2022/05/04 06:17:22;;;;;;;30.00;13.07;;;;;;;7.87;64.22;95293.56;5013489;28;20084;-82
2022/05/04 06:19:47;;;;;;;31.05;13.77;;;;;;;8.89;64.75;95451.78;5009962;28;20041;-83
2022/05/04 06:22:13;;;;;;;51.10;16.75;;;;;;;8.98;65.16;95466.09;5007726;28;20052;-82
2022/05/04 06:24:39;;;;;;;33.75;14.15;;;;;;;8.32;65.01;95393.47;4996734;28;20577;-83
2022/05/04 06:27:04;;;;;;;30.27;15.07;;;;;;;7.94;65.28;95321.34;4987008;28;20052;-82
2022/05/04 06:35:03;;;;;;;35.72;15.88;;;;;;;8.83;65.41;95429.00;5012608;28;20527;-83
2022/05/04 06:37:28;;;;;;;36.15;17.90;;;;;;;8.32;64.81;95315.00;4993190;28;20286;-83
2022/05/04 06:39:54;;;;;;;32.00;16.42;;;;;;;8.55;64.65;95319.09;5010108;28;22155;-82
2022/05/04 06:42:19;;;;;;;31.05;15.40;;;;;;;8.78;64.67;95421.81;5017619;28;20582;-82
2022/05/04 06:44:45;;;;;;;28.27;15.27;;;;;;;8.54;64.29;95335.25;5003543;28;20046;-82
2022/05/04 06:47:10;;;;;;;30.77;15.23;;;;;;;9.32;63.93;95408.31;5012191;28;20029;-83
2022/05/04 06:49:36;;;;;;;24.95;14.77;;;;;;;9.58;63.84;95448.91;4984429;28;20047;-83
2022/05/04 06:52:01;;;;;;;27.15;14.60;;;;;;;9.42;63.11;95421.59;5008820;28;20773;-81
2022/05/04 06:54:27;;;;;;;29.92;16.23;;;;;;;9.45;63.46;95425.56;5018838;28;20037;-82
2022/05/04 06:56:52;;;;;;;31.70;17.40;;;;;;;9.18;63.76;95365.66;5019834;28;20075;-82
2022/05/04 06:59:18;;;;;;;28.58;15.25;;;;;;;9.24;62.79;95347.94;5014364;28;20271;-82
2022/05/04 07:01:44;;;;;;;30.15;14.48;;;;;;;9.17;62.50;95305.84;5016491;28;20095;-82
2022/05/04 07:04:09;;;;;;;33.22;16.38;;;;;;;9.64;62.70;95379.00;5014386;28;20039;-83
2022/05/04 07:06:35;;;;;;;31.95;16.55;;;;;;;9.47;62.22;95357.25;4997772;28;20042;-82
2022/05/04 07:09:00;;;;;;;34.60;16.50;;;;;;;9.51;61.54;95358.34;4999243;28;20025;-82
2022/05/04 07:11:26;;;;;;;37.00;18.23;;;;;;;9.71;62.20;95381.41;5013972;28;20033;-81
2022/05/04 07:13:51;;;;;;;36.08;17.67;;;;;;;9.95;62.49;95424.88;4999402;28;20047;-82
2022/05/04 07:16:16;;;;;;;34.40;16.33;;;;;;;9.63;62.51;95374.78;5001462;28;20463;-81
2022/05/04 07:18:42;;;;;;;33.42;16.75;;;;;;;9.59;61.98;95352.53;4996378;28;20500;-82
2022/05/04 07:21:07;;;;;;;34.63;19.17;;;;;;;9.79;62.14;95343.81;5015758;28;20501;-82
2022/05/04 07:23:33;;;;;;;31.42;17.25;;;;;;;10.44;61.87;95449.09;5015856;28;20060;-82
2022/05/04 07:25:58;;;;;;;23.98;16.52;;;;;;;10.48;61.49;95444.03;5003038;28;20038;-82
2022/05/04 07:28:26;;;;;;;28.17;16.20;;;;;;;10.47;60.62;95415.91;4995866;28;20215;-82
2022/05/04 07:30:52;;;;;;;23.85;15.88;;;;;;;10.27;60.50;95361.06;5016515;28;20041;-82
2022/05/04 07:33:17;;;;;;;28.27;16.85;;;;;;;10.21;60.76;95351.53;5019067;28;20051;-82
2022/05/04 07:35:43;;;;;;;27.10;15.45;;;;;;;9.78;60.63;95268.06;5019939;28;20611;-84
2022/05/04 07:38:08;;;;;;;29.15;16.20;;;;;;;10.27;60.89;95361.88;4991886;28;20095;-83
2022/05/04 07:43:18;;;;;;;26.85;13.80;;;;;;;10.51;59.52;95380.66;5022473;28;20277;-83
2022/05/04 07:45:44;;;;;;;20.60;12.25;;;;;;;10.60;59.36;95372.97;5029034;28;20041;-82
2022/05/04 07:48:09;;;;;;;21.73;12.73;;;;;;;10.11;59.99;95288.69;5002401;28;20040;-82
2022/05/04 07:50:35;;;;;;;25.20;12.77;;;;;;;10.71;59.33;95350.63;5003472;28;20044;-82
2022/05/04 07:53:02;;;;;;;28.95;13.25;;;;;;;10.83;58.56;95389.06;5018031;28;20049;-80
2022/05/04 07:55:27;;;;;;;18.88;12.07;;;;;;;10.43;58.34;95291.06;4999959;28;20036;-83
2022/05/04 07:57:59;;;;;;;26.42;12.10;;;;;;;10.84;58.35;95363.31;5013522;28;20029;-82
2022/05/04 08:05:54;;;;;;;27.15;11.45;;;;;;;10.75;57.60;95327.84;5022307;28;20129;-82
2022/05/04 08:08:28;;;;;;;25.15;11.23;;;;;;;11.35;57.81;95401.09;5011438;28;20124;-81
2022/05/04 08:10:57;;;;;;;19.77;9.48;;;;;;;11.58;57.82;95419.06;5036990;28;20029;-82
2022/05/04 08:13:23;;;;;;;22.88;9.50;;;;;;;11.44;55.51;95380.88;4996401;28;20498;-82
2022/05/04 08:15:48;;;;;;;18.90;7.13;;;;;;;11.45;56.22;95371.03;4995642;28;20041;-83
2022/05/04 08:18:14;;;;;;;14.95;6.60;;;;;;;11.21;55.69;95331.09;4994979;28;20076;-82
2022/05/04 08:20:40;;;;;;;11.10;5.95;;;;;;;11.18;51.68;95292.59;4996491;28;20809;-82
2022/05/04 08:23:06;;;;;;;18.30;5.80;;;;;;;11.28;53.11;95293.63;4995355;28;20111;-82
2022/05/04 08:25:32;;;;;;;13.13;7.38;;;;;;;11.52;54.83;95323.72;5015899;28;20061;-82
2022/05/04 08:27:57;;;;;;;15.95;6.05;;;;;;;11.38;52.94;95283.72;5011101;28;20199;-82
2022/05/04 08:30:23;;;;;;;17.95;6.10;;;;;;;12.32;53.75;95415.41;5012447;28;20441;-82
2022/05/04 08:32:50;;;;;;;8.88;5.55;;;;;;;11.79;52.36;95313.47;5014679;28;20435;-82
2022/05/04 08:35:17;;;;;;;13.27;5.75;;;;;;;12.54;53.55;95409.66;4992925;28;20393;-82
2022/05/04 08:37:43;;;;;;;9.85;4.70;;;;;;;12.13;49.26;95328.66;4993015;28;20037;-81
2022/05/04 08:40:09;;;;;;;10.85;4.70;;;;;;;11.70;49.34;95251.34;4990250;28;20212;-83
2022/05/04 08:42:45;;;;;;;9.50;4.57;;;;;;;12.09;49.75;95315.09;4992898;28;20218;-82
2022/05/04 08:45:12;;;;;;;7.47;4.45;;;;;;;12.84;49.82;95411.22;5012824;28;20041;-82
2022/05/04 08:47:41;;;;;;;11.88;4.30;;;;;;;11.54;48.55;95202.06;4998372;28;20064;-82
2022/05/04 08:50:15;;;;;;;9.02;4.38;;;;;;;12.99;48.71;95400.41;4988515;28;20044;-82
2022/05/04 08:52:51;;;;;;;11.48;4.45;;;;;;;12.54;48.67;95305.91;4994267;28;20029;-82
2022/05/04 08:55:17;;;;;;;12.25;3.55;;;;;;;12.59;45.73;95305.03;5016890;28;20098;-82
2022/05/04 08:57:42;;;;;;;7.95;3.05;;;;;;;12.93;45.45;95348.31;5003578;28;20744;-83
2022/05/04 09:00:10;;;;;;;5.85;2.65;;;;;;;13.08;45.35;95347.34;5012384;28;20098;-82
2022/05/04 09:02:36;;;;;;;10.40;4.07;;;;;;;13.28;47.28;95359.63;5007999;28;20111;-83
2022/05/04 09:05:23;;;;;;;12.13;3.35;;;;;;;13.56;45.64;95417.38;4992094;28;20474;-83
2022/05/04 09:07:51;;;;;;;10.45;3.85;;;;;;;13.35;45.23;95352.88;5008565;28;20045;-83
2022/05/04 09:10:27;;;;;;;4.63;2.80;;;;;;;12.79;45.88;95250.81;5017943;28;20041;-83
2022/05/04 09:12:55;;;;;;;6.68;3.25;;;;;;;13.83;46.26;95393.53;5000737;28;20052;-82
2022/05/04 09:15:26;;;;;;;5.00;2.97;;;;;;;13.97;46.79;95392.81;5017568;28;21702;-82
2022/05/04 09:18:15;;;;;;;6.13;2.60;;;;;;;13.28;44.79;95285.06;5018462;28;20034;-82
2022/05/04 09:20:58;;;;;;;5.57;2.88;;;;;;;13.39;45.84;95321.94;4991965;28;20296;-82
2022/05/04 09:23:25;;;;;;;7.72;3.13;;;;;;;13.97;47.49;95382.94;5001199;28;20037;-82
2022/05/04 09:26:00;;;;;;;11.35;3.38;;;;;;;13.99;45.59;95380.00;5015947;28;20037;-82
2022/05/04 09:28:28;;;;;;;14.25;3.45;;;;;;;14.10;47.10;95390.22;5017588;28;20046;-82
2022/05/04 09:30:56;;;;;;;12.77;3.40;;;;;;;14.26;47.86;95382.78;5003968;28;20044;-82
2022/05/04 09:33:26;;;;;;;7.50;3.25;;;;;;;13.83;47.27;95300.25;4998884;28;20217;-82
2022/05/04 09:35:52;;;;;;;10.55;3.28;;;;;;;14.45;47.67;95391.56;5002339;28;20087;-83
2022/05/04 09:46:42;;;;;;;7.75;2.42;;;;;;;15.00;44.59;95346.28;5017444;28;20053;-82
2022/05/04 09:49:19;;;;;;;6.93;2.88;;;;;;;15.02;41.79;95280.81;4997416;28;20428;-82
2022/05/04 09:51:51;;;;;;;3.42;2.25;;;;;;;16.10;40.33;95315.53;4997167;28;20037;-82
2022/05/04 09:54:27;;;;;;;3.10;2.20;;;;;;;17.19;38.68;95308.69;5015160;28;20057;-82
2022/05/04 09:56:57;;;;;;;7.15;2.55;;;;;;;18.38;37.73;95356.63;5001365;28;20267;-81
2022/05/04 09:59:29;;;;;;;8.30;2.75;;;;;;;18.82;36.26;95331.28;5022790;28;20118;-82
2022/05/04 10:01:55;;;;;;;10.80;2.75;;;;;;;17.32;35.66;95015.59;4997389;28;20041;-82
2022/05/04 10:04:23;;;;;;;6.03;2.45;;;;;;;20.18;34.47;95362.31;4998747;28;20467;-82
2022/05/04 10:06:50;;;;;;;6.30;2.45;;;;;;;20.27;33.45;95276.84;5005386;28;20040;-82
2022/05/04 10:09:17;;;;;;;7.18;1.85;;;;;;;21.54;31.65;95353.88;5021015;28;20224;-82
2022/05/04 10:11:42;;;;;;;4.03;1.92;;;;;;;19.94;31.98;95120.72;5015350;28;20037;-82
2022/05/04 10:14:13;;;;;;;5.30;2.42;;;;;;;21.37;30.83;95251.59;5025286;28;20330;-79
2022/05/04 10:16:50;;;;;;;5.22;2.75;;;;;;;21.40;31.20;95325.69;4999075;28;20033;-82
2022/05/04 10:19:23;;;;;;;9.60;2.30;;;;;;;20.96;31.95;95217.59;5016387;28;20052;-82
2022/05/04 10:21:52;;;;;;;4.38;2.20;;;;;;;21.10;30.98;95222.63;5014001;28;20098;-83
2022/05/04 10:24:20;;;;;;;7.90;2.80;;;;;;;22.42;30.14;95329.84;5001160;28;20037;-83
2022/05/04 10:26:47;;;;;;;7.00;2.58;;;;;;;21.37;30.17;95261.59;5020837;28;20098;-83
2022/05/04 10:32:34;;;;;;;8.80;2.55;;;;;;;22.54;30.42;95319.75;5015303;28;20031;-82
2022/05/04 10:35:11;;;;;;;7.70;2.40;;;;;;;22.63;30.12;95252.03;5019000;28;20363;-83
2022/05/04 10:38:15;;;;;;;5.78;2.17;;;;;;;22.91;28.61;95255.47;5020833;28;20486;-82
2022/05/04 10:41:00;;;;;;;5.53;2.58;;;;;;;23.70;28.34;95304.09;4941919;28;20395;-81
2022/05/04 10:43:45;;;;;;;7.53;2.65;;;;;;;23.19;28.24;95195.81;5016257;28;20495;-83
2022/05/04 10:46:20;;;;;;;14.52;2.75;;;;;;;22.85;28.61;95183.06;5011899;28;20433;-82
2022/05/04 10:48:56;;;;;;;3.53;2.38;;;;;;;23.25;29.74;95302.66;5002119;28;20044;-83
2022/05/04 10:51:27;;;;;;;4.32;2.20;;;;;;;21.88;29.77;95228.44;5009269;28;20036;-83
2022/05/04 10:54:11;;;;;;;9.52;3.13;;;;;;;21.48;30.39;95305.91;5002434;28;20836;-83
2022/05/04 10:56:43;;;;;;;8.13;2.50;;;;;;;19.82;32.13;95137.66;5001391;28;20553;-83
2022/05/04 10:59:10;;;;;;;8.77;2.45;;;;;;;20.07;32.55;95221.91;5015293;28;20440;-82
2022/05/04 11:01:37;;;;;;;6.72;2.25;;;;;;;20.97;32.04;95243.44;5003518;28;20107;-82
2022/05/04 11:04:07;;;;;;;5.78;2.10;;;;;;;21.29;31.25;95294.88;5015827;28;20029;-82
2022/05/04 11:06:45;;;;;;;4.80;2.20;;;;;;;21.01;31.39;95283.97;5014373;28;20105;-82
2022/05/04 11:09:18;;;;;;;6.85;2.50;;;;;;;20.62;32.08;95286.16;5011849;28;20029;-82
2022/05/04 11:11:49;;;;;;;5.47;2.28;;;;;;;19.96;32.81;95197.34;5003836;28;20037;-82
2022/05/04 11:14:16;;;;;;;3.17;2.00;;;;;;;21.07;31.79;95282.59;5008033;28;20041;-82
2022/05/04 11:16:43;;;;;;;3.08;2.00;;;;;;;21.59;31.60;95273.84;5017573;28;20041;-82
2022/05/04 11:19:12;;;;;;;2.63;1.80;;;;;;;21.09;30.04;95194.88;4997842;28;20043;-82
2022/05/04 11:21:38;;;;;;;6.35;2.05;;;;;;;21.14;30.17;95177.66;5014484;28;20396;-82
2022/05/04 11:24:06;;;;;;;3.28;2.00;;;;;;;21.75;30.01;95247.69;5015893;28;20033;-81
2022/05/04 11:26:50;;;;;;;5.03;2.38;;;;;;;21.83;29.84;95184.66;4980978;28;20037;-82
2022/05/04 11:29:18;;;;;;;3.72;1.92;;;;;;;22.50;29.40;95250.56;4998544;28;20061;-82
2022/05/04 11:31:46;;;;;;;8.75;2.63;;;;;;;23.01;29.18;95273.88;5010249;28;20427;-83
2022/05/04 11:34:18;;;;;;;4.85;2.17;;;;;;;22.91;29.75;95271.69;4998651;28;20593;-82
2022/05/04 11:36:46;;;;;;;4.68;2.47;;;;;;;22.49;29.42;95255.16;4997353;28;20133;-82
2022/05/04 11:39:22;;;;;;;9.30;2.50;;;;;;;21.91;29.32;95172.94;5005540;28;20068;-82
2022/05/04 11:41:50;;;;;;;6.35;1.98;;;;;;;22.08;29.07;95196.97;4994260;28;20226;-82
2022/05/04 11:44:18;;;;;;;5.32;2.55;;;;;;;22.21;29.71;95265.19;5004279;28;20025;-83
2022/05/04 11:46:44;;;;;;;4.07;2.22;;;;;;;21.48;29.88;95173.69;4996950;28;20049;-83
2022/05/04 11:49:11;;;;;;;6.95;2.10;;;;;;;21.41;30.19;95247.13;4994592;28;20064;-82
2022/05/04 11:51:37;;;;;;;6.95;2.08;;;;;;;21.39;30.70;95273.63;5012715;28;20034;-82
2022/05/04 11:54:03;;;;;;;6.50;2.22;;;;;;;20.65;31.13;95207.38;4996012;28;20088;-83
2022/05/04 11:56:29;;;;;;;8.57;2.70;;;;;;;20.38;31.62;95140.66;5012238;28;20040;-82
2022/05/04 11:58:54;;;;;;;7.53;2.17;;;;;;;21.13;31.67;95227.34;5012289;28;20041;-83
2022/05/04 12:01:20;;;;;;;7.88;2.10;;;;;;;20.51;30.86;95155.72;4991612;28;20068;-82
2022/05/04 12:03:50;;;;;;;2.90;2.00;;;;;;;20.26;30.72;95151.41;4991667;28;20112;-83
2022/05/04 12:06:16;;;;;;;4.85;1.90;;;;;;;20.68;30.33;95170.84;4995088;28;20026;-83
2022/05/04 12:08:42;;;;;;;3.97;1.65;;;;;;;20.59;31.20;95249.13;5007524;28;20099;-83